createdAt,value
2022-10-24T00:03:59.330Z,14.70
2022-10-24T00:08:07.952Z,14.70
2022-10-24T00:12:16.858Z,14.80
2022-10-24T00:16:25.619Z,14.80
2022-10-24T00:20:34.291Z,14.70
2022-10-24T00:24:42.955Z,14.80
2022-10-24T00:28:51.641Z,14.80
2022-10-24T00:33:00.313Z,14.80
2022-10-24T00:37:09.079Z,14.80
2022-10-24T00:41:23.512Z,14.70
2022-10-24T00:45:58.968Z,14.70
2022-10-24T00:50:15.683Z,14.70
2022-10-24T00:54:24.623Z,14.70
2022-10-24T00:58:35.934Z,14.70
2022-10-24T01:02:46.427Z,14.70
2022-10-24T01:06:58.202Z,14.70
2022-10-24T01:11:26.217Z,14.70
2022-10-24T01:15:58.866Z,14.80
2022-10-24T01:20:24.905Z,14.90
2022-10-24T01:24:48.788Z,14.90
2022-10-24T01:29:20.898Z,14.90
2022-10-24T01:33:35.663Z,15.00
2022-10-24T01:37:52.972Z,14.90
2022-10-24T01:42:03.954Z,14.90
2022-10-24T01:46:18.534Z,14.80
2022-10-24T01:50:29.891Z,14.80
2022-10-24T01:54:40.907Z,14.80
2022-10-24T01:58:50.096Z,14.90
2022-10-24T02:03:01.905Z,14.90
2022-10-24T02:07:13.604Z,14.90
2022-10-24T02:11:22.482Z,14.90
2022-10-24T02:15:34.387Z,14.80
2022-10-24T02:19:43.985Z,14.80
2022-10-24T02:24:13.356Z,14.70
2022-10-24T02:28:27.177Z,14.70
2022-10-24T02:32:41.978Z,14.60
2022-10-24T02:36:53.068Z,14.60
2022-10-24T02:41:04.767Z,14.60
2022-10-24T02:45:33.070Z,14.60
2022-10-24T02:49:43.627Z,14.60
2022-10-24T02:53:53.422Z,14.60
2022-10-24T02:58:01.988Z,14.60
2022-10-24T03:02:10.539Z,14.60
2022-10-24T03:06:20.601Z,14.60
2022-10-24T03:10:29.330Z,14.60
2022-10-24T03:14:37.856Z,14.60
2022-10-24T03:18:47.582Z,14.60
2022-10-24T03:22:56.351Z,14.60
2022-10-24T03:27:05.019Z,14.60
2022-10-24T03:31:13.702Z,14.60
2022-10-24T03:35:22.331Z,14.60
2022-10-24T03:39:30.857Z,14.60
2022-10-24T03:43:39.450Z,14.60
2022-10-24T03:47:48.115Z,14.50
2022-10-24T03:51:56.642Z,14.50
2022-10-24T03:56:05.499Z,14.40
2022-10-24T04:00:14.513Z,14.40
2022-10-24T04:04:23.066Z,14.40
2022-10-24T04:08:31.669Z,14.40
2022-10-24T04:12:40.236Z,14.40
2022-10-24T04:16:48.835Z,14.40
2022-10-24T04:20:57.452Z,14.40
2022-10-24T04:25:07.006Z,14.40
2022-10-24T04:29:15.534Z,14.40
2022-10-24T04:33:24.568Z,14.30
2022-10-24T04:37:33.656Z,14.40
2022-10-24T04:41:42.339Z,14.40
2022-10-24T04:45:51.272Z,14.40
2022-10-24T04:50:19.461Z,14.50
2022-10-24T04:54:27.955Z,14.40
2022-10-24T04:58:36.621Z,14.40
2022-10-24T05:02:45.248Z,14.40
2022-10-24T05:06:54.077Z,14.30
2022-10-24T05:11:02.910Z,14.30
2022-10-24T05:15:14.196Z,14.30
2022-10-24T05:19:22.831Z,14.30
2022-10-24T05:23:31.356Z,14.30
2022-10-24T05:27:39.986Z,14.20
2022-10-24T05:31:48.716Z,14.20
2022-10-24T05:35:57.888Z,14.30
2022-10-24T05:40:09.276Z,14.30
2022-10-24T05:44:17.938Z,14.40
2022-10-24T05:48:26.610Z,14.40
2022-10-24T05:52:36.541Z,14.40
2022-10-24T05:56:45.786Z,14.40
2022-10-24T06:00:54.429Z,14.40
2022-10-24T06:05:03.058Z,14.40
2022-10-24T06:09:12.556Z,14.40
2022-10-24T06:17:37.497Z,14.40
2022-10-24T06:21:46.127Z,14.40
2022-10-24T06:25:54.958Z,14.50
2022-10-24T06:30:03.588Z,14.40
2022-10-24T06:34:12.252Z,14.40
2022-10-24T06:38:21.974Z,14.50
2022-10-24T06:42:32.137Z,14.60
2022-10-24T06:46:40.765Z,14.70
2022-10-24T06:50:49.404Z,14.70
2022-10-24T06:54:57.994Z,14.70
2022-10-24T06:59:14.356Z,14.70
2022-10-24T07:03:22.961Z,14.70
2022-10-24T07:07:31.590Z,14.70
2022-10-24T07:11:59.573Z,14.80
2022-10-24T07:16:08.712Z,14.80
2022-10-24T07:24:46.449Z,14.90
2022-10-24T07:28:58.443Z,14.90
2022-10-24T07:33:07.700Z,15.00
2022-10-24T07:37:17.563Z,15.10
2022-10-24T07:41:28.644Z,15.20
2022-10-24T07:45:38.828Z,15.30
2022-10-24T07:49:47.407Z,15.30
2022-10-24T07:53:57.134Z,15.40
2022-10-24T07:58:05.778Z,15.40
2022-10-24T08:02:15.588Z,15.50
2022-10-24T08:06:28.539Z,15.50
2022-10-24T08:10:37.139Z,15.60
2022-10-24T08:14:45.763Z,15.80
2022-10-24T08:18:57.033Z,15.80
2022-10-24T08:23:05.832Z,15.90
2022-10-24T08:27:15.030Z,15.90
2022-10-24T08:31:27.778Z,15.90
2022-10-24T08:35:36.359Z,16.00
2022-10-24T08:39:45.012Z,16.00
2022-10-24T08:43:56.838Z,16.20
2022-10-24T08:48:12.033Z,16.30
2022-10-24T08:52:23.980Z,16.30
2022-10-24T08:56:34.737Z,16.30
2022-10-24T09:00:46.178Z,16.40
2022-10-24T09:05:03.663Z,16.40
2022-10-24T09:09:33.118Z,16.40
2022-10-24T09:13:41.761Z,16.50
2022-10-24T09:17:51.431Z,16.60
2022-10-24T09:22:02.549Z,16.60
2022-10-24T09:26:16.911Z,16.60
2022-10-24T09:30:31.434Z,16.60
2022-10-24T09:34:38.626Z,16.70
2022-10-24T09:38:49.042Z,16.70
2022-10-24T09:43:06.419Z,16.70
2022-10-24T09:47:26.931Z,16.80
2022-10-24T09:51:41.159Z,16.80
2022-10-24T09:55:52.799Z,17.00
2022-10-24T10:00:02.282Z,17.10
2022-10-24T10:04:18.755Z,17.10
2022-10-24T10:08:33.324Z,17.20
2022-10-24T10:12:44.855Z,17.30
2022-10-24T10:17:05.709Z,17.30
2022-10-24T10:21:20.938Z,17.30
2022-10-24T10:25:32.103Z,17.40
2022-10-24T10:29:40.688Z,17.30
2022-10-24T10:34:01.128Z,17.40
2022-10-24T10:38:34.579Z,17.40
2022-10-24T10:43:04.107Z,17.40
2022-10-24T10:47:39.408Z,17.50
2022-10-24T10:51:53.672Z,17.40
2022-10-24T10:56:19.930Z,17.40
2022-10-24T11:01:01.446Z,17.40
2022-10-24T11:05:28.548Z,17.40
2022-10-24T11:09:46.010Z,17.40
2022-10-24T11:14:01.661Z,17.50
2022-10-24T11:18:37.204Z,17.60
2022-10-24T11:22:48.814Z,17.50
2022-10-24T11:27:03.201Z,17.50
2022-10-24T11:31:29.596Z,17.70
2022-10-24T11:35:43.182Z,17.80
2022-10-24T11:39:55.405Z,17.80
2022-10-24T11:44:08.011Z,17.70
2022-10-24T11:48:25.743Z,17.70
2022-10-24T11:52:37.406Z,17.60
2022-10-24T11:56:51.580Z,17.60
2022-10-24T12:01:11.909Z,17.60
2022-10-24T12:05:42.793Z,17.70
2022-10-24T12:10:27.628Z,17.70
2022-10-24T12:14:47.925Z,17.70
2022-10-24T12:19:02.314Z,17.80
2022-10-24T12:23:14.013Z,17.80
2022-10-24T12:27:26.206Z,17.80
2022-10-24T12:31:37.656Z,17.80
2022-10-24T12:35:48.943Z,17.80
2022-10-24T12:39:58.742Z,17.70
2022-10-24T12:44:29.055Z,17.70
2022-10-24T12:48:38.539Z,17.80
2022-10-24T12:52:50.167Z,17.70
2022-10-24T12:57:04.598Z,17.60
2022-10-24T13:01:25.763Z,17.50
2022-10-24T13:06:08.768Z,17.10
2022-10-24T13:10:37.874Z,16.70
2022-10-24T13:15:07.462Z,16.40
2022-10-24T13:19:25.356Z,16.30
2022-10-24T13:23:36.238Z,16.40
2022-10-24T13:27:44.849Z,16.30
2022-10-24T13:31:55.897Z,16.30
2022-10-24T13:36:18.092Z,16.40
2022-10-24T13:40:33.639Z,16.40
2022-10-24T13:44:49.371Z,16.30
2022-10-24T13:48:58.989Z,16.20
2022-10-24T13:53:30.524Z,16.20
2022-10-24T13:57:38.229Z,16.10
2022-10-24T14:01:46.795Z,16.10
2022-10-24T14:06:01.381Z,16.00
2022-10-24T14:10:17.102Z,15.90
2022-10-24T14:14:39.944Z,15.80
2022-10-24T14:18:48.776Z,15.80
2022-10-24T14:22:57.879Z,15.70
2022-10-24T14:27:06.508Z,15.60
2022-10-24T14:31:23.967Z,15.50
2022-10-24T14:35:33.274Z,15.40
2022-10-24T14:39:42.912Z,15.50
2022-10-24T14:43:51.697Z,15.50
2022-10-24T14:48:01.999Z,15.50
2022-10-24T14:52:28.512Z,15.40
2022-10-24T14:56:40.704Z,15.40
2022-10-24T15:00:50.766Z,15.30
2022-10-24T15:05:23.558Z,15.40
2022-10-24T15:09:32.484Z,15.30
2022-10-24T15:13:48.097Z,15.30
2022-10-24T15:18:08.609Z,15.40
2022-10-24T15:22:38.243Z,15.40
2022-10-24T15:26:47.047Z,15.40
2022-10-24T15:30:55.674Z,15.40
2022-10-24T15:35:04.346Z,15.40
2022-10-24T15:39:15.900Z,15.40
2022-10-24T15:43:24.529Z,15.40
2022-10-24T15:47:33.160Z,15.40
2022-10-24T15:52:00.942Z,15.40
2022-10-24T15:56:11.324Z,15.30
2022-10-24T16:00:23.388Z,15.20
2022-10-24T16:04:33.683Z,15.10
2022-10-24T16:08:42.709Z,15.00
2022-10-24T16:12:51.426Z,15.00
2022-10-24T16:17:00.388Z,15.00
2022-10-24T16:21:09.018Z,14.90
2022-10-24T16:25:20.717Z,14.90
2022-10-24T16:29:30.882Z,14.90
2022-10-24T16:33:39.512Z,14.90
2022-10-24T16:37:48.242Z,14.90
2022-10-24T16:41:58.351Z,14.80
2022-10-24T16:46:07.549Z,14.80
2022-10-24T16:50:20.886Z,14.80
2022-10-24T16:54:29.397Z,14.80
2022-10-24T16:58:39.384Z,14.80
2022-10-24T17:02:50.855Z,14.80
2022-10-24T17:06:59.637Z,14.70
2022-10-24T17:11:32.200Z,14.70
2022-10-24T17:15:22.402Z,14.70
2022-10-24T17:19:32.151Z,14.70
2022-10-24T17:23:41.302Z,14.70
2022-10-24T17:27:50.662Z,14.70
2022-10-24T17:32:00.221Z,14.70
2022-10-24T17:36:23.677Z,14.70
2022-10-24T17:40:35.324Z,14.60
2022-10-24T17:44:44.859Z,14.50
2022-10-24T17:48:54.677Z,14.40
2022-10-24T17:53:03.640Z,14.40
2022-10-24T17:57:12.227Z,14.30
2022-10-24T18:01:21.100Z,14.30
2022-10-24T18:05:30.507Z,14.20
2022-10-24T18:09:40.269Z,14.20
2022-10-24T18:17:57.785Z,14.00
2022-10-24T18:22:06.726Z,14.00
2022-10-24T18:26:21.540Z,14.00
2022-10-24T18:30:31.312Z,13.90
2022-10-24T18:34:40.879Z,14.00
2022-10-24T18:38:49.728Z,13.90
2022-10-24T18:43:25.170Z,13.90
2022-10-24T18:47:46.595Z,13.90
2022-10-24T18:52:01.441Z,13.90
2022-10-24T18:56:10.763Z,13.90
2022-10-24T19:00:25.558Z,13.90
2022-10-24T19:04:37.522Z,13.90
2022-10-24T19:08:46.336Z,13.80
2022-10-24T19:12:57.270Z,13.80
2022-10-24T19:17:05.973Z,13.90
2022-10-24T19:21:14.644Z,13.90
2022-10-24T19:25:23.225Z,13.90
2022-10-24T19:29:31.856Z,13.90
2022-10-24T19:33:41.256Z,13.90
2022-10-24T19:37:51.581Z,13.90
2022-10-24T19:42:00.235Z,14.00
2022-10-24T19:46:19.718Z,14.00
2022-10-24T19:50:19.192Z,14.00
2022-10-24T19:54:27.843Z,14.00
2022-10-24T19:58:37.239Z,14.00
2022-10-24T20:02:45.937Z,14.00
2022-10-24T20:06:54.853Z,14.00
2022-10-24T20:11:04.368Z,14.00
2022-10-24T20:15:14.508Z,14.10
2022-10-24T20:19:23.119Z,14.10
2022-10-24T20:23:32.523Z,14.00
2022-10-24T20:27:41.182Z,14.00
2022-10-24T20:31:49.758Z,13.90
2022-10-24T20:36:02.308Z,13.90
2022-10-24T20:40:12.858Z,13.80
2022-10-24T20:44:21.435Z,13.80
2022-10-24T20:48:30.033Z,13.70
2022-10-24T20:52:38.672Z,13.70
2022-10-24T20:56:47.286Z,13.70
2022-10-24T21:00:55.889Z,13.70
2022-10-24T21:05:06.581Z,13.60
2022-10-24T21:09:15.243Z,13.50
2022-10-24T21:13:23.998Z,13.50
2022-10-24T21:17:32.613Z,13.40
2022-10-24T21:21:41.448Z,13.40
2022-10-24T21:25:51.106Z,13.40
2022-10-24T21:29:59.672Z,13.40
2022-10-24T21:34:08.294Z,13.30
2022-10-24T21:38:16.861Z,13.40
2022-10-24T21:42:25.457Z,13.30
2022-10-24T21:46:34.464Z,13.40
2022-10-24T21:54:51.561Z,13.30
2022-10-24T22:03:11.652Z,13.30
2022-10-24T22:07:20.665Z,13.40
2022-10-24T22:11:31.805Z,13.40
2022-10-24T22:15:40.908Z,13.30
2022-10-24T22:19:49.454Z,13.30
2022-10-24T22:23:59.629Z,13.20
2022-10-24T22:28:08.186Z,13.20
2022-10-24T22:32:17.058Z,13.20
2022-10-24T22:37:02.833Z,13.10
2022-10-24T22:41:13.085Z,13.10
2022-10-24T22:45:43.448Z,13.10
2022-10-24T22:50:12.972Z,13.10
2022-10-24T22:54:41.037Z,13.10
2022-10-24T22:58:50.245Z,13.20
2022-10-24T23:03:20.633Z,13.20
2022-10-24T23:08:08.479Z,13.20
2022-10-24T23:12:20.384Z,13.20
2022-10-24T23:16:32.045Z,13.30
2022-10-24T23:20:45.255Z,13.30
2022-10-24T23:24:55.757Z,13.30
2022-10-24T23:29:19.740Z,13.40
2022-10-24T23:33:29.495Z,13.50
2022-10-24T23:37:57.595Z,13.50
2022-10-24T23:42:06.417Z,13.60
2022-10-24T23:46:27.143Z,13.60
2022-10-24T23:50:53.642Z,13.60
2022-10-24T23:55:03.081Z,13.70
2022-10-24T23:59:15.087Z,13.70
